sensor_id;sensor_type;location;lat;lon;timestamp;P1;durP1;ratioP1;P2;durP2;ratioP2
69305;SDS011;56427;51.580;4.656;2023-07-31T00:00:26;26.33;;;8.10;;
69305;SDS011;56427;51.580;4.656;2023-07-31T00:02:53;29.15;;;7.88;;
69305;SDS011;56427;51.580;4.656;2023-07-31T00:05:19;24.77;;;7.72;;
69305;SDS011;56427;51.580;4.656;2023-07-31T00:07:45;28.40;;;8.23;;
69305;SDS011;56427;51.580;4.656;2023-07-31T00:10:12;29.55;;;8.02;;
69305;SDS011;56427;51.580;4.656;2023-07-31T00:12:38;19.92;;;7.53;;
69305;SDS011;56427;51.580;4.656;2023-07-31T00:15:09;23.48;;;7.63;;
69305;SDS011;56427;51.580;4.656;2023-07-31T00:17:35;24.00;;;6.60;;
69305;SDS011;56427;51.580;4.656;2023-07-31T00:20:01;25.45;;;7.95;;
69305;SDS011;56427;51.580;4.656;2023-07-31T00:22:28;25.48;;;7.50;;
69305;SDS011;56427;51.580;4.656;2023-07-31T00:24:54;25.30;;;8.10;;
69305;SDS011;56427;51.580;4.656;2023-07-31T00:27:21;21.95;;;6.93;;
69305;SDS011;56427;51.580;4.656;2023-07-31T00:29:48;29.95;;;7.32;;
69305;SDS011;56427;51.580;4.656;2023-07-31T00:32:14;20.83;;;6.75;;
69305;SDS011;56427;51.580;4.656;2023-07-31T00:34:40;25.97;;;7.00;;
69305;SDS011;56427;51.580;4.656;2023-07-31T00:37:05;19.43;;;6.87;;
69305;SDS011;56427;51.580;4.656;2023-07-31T00:39:33;26.48;;;6.78;;
69305;SDS011;56427;51.580;4.656;2023-07-31T00:42:00;19.55;;;6.32;;
69305;SDS011;56427;51.580;4.656;2023-07-31T00:44:26;18.17;;;6.13;;
69305;SDS011;56427;51.580;4.656;2023-07-31T00:46:55;24.27;;;6.30;;
69305;SDS011;56427;51.580;4.656;2023-07-31T00:49:22;24.42;;;6.15;;
69305;SDS011;56427;51.580;4.656;2023-07-31T00:51:47;23.52;;;6.22;;
69305;SDS011;56427;51.580;4.656;2023-07-31T00:54:13;23.93;;;7.17;;
69305;SDS011;56427;51.580;4.656;2023-07-31T00:56:39;23.13;;;6.60;;
69305;SDS011;56427;51.580;4.656;2023-07-31T00:59:05;25.40;;;5.93;;
69305;SDS011;56427;51.580;4.656;2023-07-31T01:01:31;18.83;;;5.87;;
69305;SDS011;56427;51.580;4.656;2023-07-31T01:03:56;24.90;;;6.18;;
69305;SDS011;56427;51.580;4.656;2023-07-31T01:06:44;22.50;;;5.97;;
69305;SDS011;56427;51.580;4.656;2023-07-31T01:12:06;31.42;;;7.22;;
69305;SDS011;56427;51.580;4.656;2023-07-31T01:14:33;21.97;;;6.57;;
69305;SDS011;56427;51.580;4.656;2023-07-31T01:17:00;23.92;;;5.85;;
69305;SDS011;56427;51.580;4.656;2023-07-31T01:19:26;21.83;;;6.47;;
69305;SDS011;56427;51.580;4.656;2023-07-31T01:22:04;19.55;;;6.18;;
69305;SDS011;56427;51.580;4.656;2023-07-31T01:24:55;20.23;;;5.80;;
69305;SDS011;56427;51.580;4.656;2023-07-31T01:27:25;30.50;;;6.68;;
69305;SDS011;56427;51.580;4.656;2023-07-31T01:30:00;22.58;;;6.60;;
69305;SDS011;56427;51.580;4.656;2023-07-31T01:32:35;22.43;;;6.23;;
69305;SDS011;56427;51.580;4.656;2023-07-31T01:35:04;22.73;;;6.07;;
69305;SDS011;56427;51.580;4.656;2023-07-31T01:37:32;22.60;;;6.45;;
69305;SDS011;56427;51.580;4.656;2023-07-31T01:39:59;21.38;;;6.07;;
69305;SDS011;56427;51.580;4.656;2023-07-31T01:42:25;24.07;;;6.30;;
69305;SDS011;56427;51.580;4.656;2023-07-31T01:44:51;27.30;;;6.63;;
69305;SDS011;56427;51.580;4.656;2023-07-31T01:47:16;18.80;;;6.20;;
69305;SDS011;56427;51.580;4.656;2023-07-31T01:49:46;20.23;;;6.28;;
69305;SDS011;56427;51.580;4.656;2023-07-31T01:52:11;18.10;;;6.43;;
69305;SDS011;56427;51.580;4.656;2023-07-31T01:54:37;21.63;;;6.27;;
69305;SDS011;56427;51.580;4.656;2023-07-31T01:57:03;21.20;;;6.88;;
69305;SDS011;56427;51.580;4.656;2023-07-31T01:59:28;25.47;;;6.83;;
69305;SDS011;56427;51.580;4.656;2023-07-31T02:01:55;24.13;;;6.27;;
69305;SDS011;56427;51.580;4.656;2023-07-31T02:04:22;21.05;;;5.88;;
69305;SDS011;56427;51.580;4.656;2023-07-31T02:06:49;24.50;;;6.57;;
69305;SDS011;56427;51.580;4.656;2023-07-31T02:09:14;18.30;;;5.77;;
69305;SDS011;56427;51.580;4.656;2023-07-31T02:11:40;21.77;;;6.30;;
69305;SDS011;56427;51.580;4.656;2023-07-31T02:14:07;22.57;;;5.93;;
69305;SDS011;56427;51.580;4.656;2023-07-31T02:16:33;25.85;;;6.38;;
69305;SDS011;56427;51.580;4.656;2023-07-31T02:18:59;23.43;;;6.30;;
69305;SDS011;56427;51.580;4.656;2023-07-31T02:21:24;22.88;;;6.78;;
69305;SDS011;56427;51.580;4.656;2023-07-31T02:23:50;24.43;;;6.13;;
69305;SDS011;56427;51.580;4.656;2023-07-31T02:26:15;26.33;;;6.97;;
69305;SDS011;56427;51.580;4.656;2023-07-31T02:28:41;19.97;;;6.30;;
69305;SDS011;56427;51.580;4.656;2023-07-31T02:31:08;21.52;;;6.30;;
69305;SDS011;56427;51.580;4.656;2023-07-31T02:33:34;20.55;;;6.22;;
69305;SDS011;56427;51.580;4.656;2023-07-31T02:35:59;22.80;;;6.17;;
69305;SDS011;56427;51.580;4.656;2023-07-31T02:38:25;19.10;;;6.25;;
69305;SDS011;56427;51.580;4.656;2023-07-31T02:40:51;21.33;;;6.17;;
69305;SDS011;56427;51.580;4.656;2023-07-31T02:43:17;20.35;;;6.28;;
69305;SDS011;56427;51.580;4.656;2023-07-31T02:45:43;22.40;;;6.10;;
69305;SDS011;56427;51.580;4.656;2023-07-31T02:48:09;21.20;;;5.63;;
69305;SDS011;56427;51.580;4.656;2023-07-31T02:50:35;19.30;;;6.07;;
69305;SDS011;56427;51.580;4.656;2023-07-31T02:53:01;21.33;;;5.68;;
69305;SDS011;56427;51.580;4.656;2023-07-31T02:55:27;22.83;;;6.90;;
69305;SDS011;56427;51.580;4.656;2023-07-31T02:57:55;18.53;;;6.20;;
69305;SDS011;56427;51.580;4.656;2023-07-31T03:00:21;20.67;;;5.53;;
69305;SDS011;56427;51.580;4.656;2023-07-31T03:02:50;16.27;;;5.68;;
69305;SDS011;56427;51.580;4.656;2023-07-31T03:05:15;19.67;;;5.80;;
69305;SDS011;56427;51.580;4.656;2023-07-31T03:07:40;24.00;;;6.03;;
69305;SDS011;56427;51.580;4.656;2023-07-31T03:10:06;22.70;;;5.83;;
69305;SDS011;56427;51.580;4.656;2023-07-31T03:12:32;21.23;;;5.95;;
69305;SDS011;56427;51.580;4.656;2023-07-31T03:14:57;18.77;;;6.57;;
69305;SDS011;56427;51.580;4.656;2023-07-31T03:17:23;22.40;;;6.27;;
69305;SDS011;56427;51.580;4.656;2023-07-31T03:19:50;21.15;;;5.78;;
69305;SDS011;56427;51.580;4.656;2023-07-31T03:22:15;18.67;;;6.37;;
69305;SDS011;56427;51.580;4.656;2023-07-31T03:24:41;17.70;;;5.72;;
69305;SDS011;56427;51.580;4.656;2023-07-31T03:27:07;20.40;;;6.27;;
69305;SDS011;56427;51.580;4.656;2023-07-31T03:29:33;20.77;;;6.30;;
69305;SDS011;56427;51.580;4.656;2023-07-31T03:31:58;17.33;;;5.23;;
69305;SDS011;56427;51.580;4.656;2023-07-31T03:34:24;19.38;;;5.90;;
69305;SDS011;56427;51.580;4.656;2023-07-31T03:36:50;16.13;;;4.93;;
69305;SDS011;56427;51.580;4.656;2023-07-31T03:39:18;20.40;;;6.22;;
69305;SDS011;56427;51.580;4.656;2023-07-31T03:41:45;19.00;;;5.03;;
69305;SDS011;56427;51.580;4.656;2023-07-31T03:44:11;18.30;;;5.55;;
69305;SDS011;56427;51.580;4.656;2023-07-31T03:46:36;15.70;;;4.77;;
69305;SDS011;56427;51.580;4.656;2023-07-31T03:49:01;12.83;;;4.23;;
69305;SDS011;56427;51.580;4.656;2023-07-31T03:51:28;17.77;;;5.20;;
69305;SDS011;56427;51.580;4.656;2023-07-31T03:53:54;21.10;;;6.43;;
69305;SDS011;56427;51.580;4.656;2023-07-31T03:56:19;21.35;;;6.05;;
69305;SDS011;56427;51.580;4.656;2023-07-31T03:58:44;15.37;;;5.93;;
69305;SDS011;56427;51.580;4.656;2023-07-31T04:01:10;20.30;;;5.87;;
69305;SDS011;56427;51.580;4.656;2023-07-31T04:03:37;14.25;;;5.13;;
69305;SDS011;56427;51.580;4.656;2023-07-31T04:06:06;19.50;;;5.27;;
69305;SDS011;56427;51.580;4.656;2023-07-31T04:08:32;19.83;;;5.70;;
69305;SDS011;56427;51.580;4.656;2023-07-31T04:10:58;12.50;;;4.72;;
69305;SDS011;56427;51.580;4.656;2023-07-31T04:13:23;20.23;;;4.97;;
69305;SDS011;56427;51.580;4.656;2023-07-31T04:15:49;18.47;;;5.60;;
69305;SDS011;56427;51.580;4.656;2023-07-31T04:18:16;16.42;;;5.68;;
69305;SDS011;56427;51.580;4.656;2023-07-31T04:20:42;22.67;;;6.53;;
69305;SDS011;56427;51.580;4.656;2023-07-31T04:23:08;17.77;;;6.90;;
69305;SDS011;56427;51.580;4.656;2023-07-31T04:25:35;20.17;;;6.63;;
69305;SDS011;56427;51.580;4.656;2023-07-31T04:28:00;18.23;;;7.10;;
69305;SDS011;56427;51.580;4.656;2023-07-31T04:30:26;21.02;;;6.63;;
69305;SDS011;56427;51.580;4.656;2023-07-31T04:32:51;21.37;;;6.80;;
69305;SDS011;56427;51.580;4.656;2023-07-31T04:35:18;18.50;;;6.03;;
69305;SDS011;56427;51.580;4.656;2023-07-31T04:37:43;19.23;;;5.87;;
69305;SDS011;56427;51.580;4.656;2023-07-31T04:40:11;20.38;;;5.90;;
69305;SDS011;56427;51.580;4.656;2023-07-31T04:42:37;20.08;;;6.35;;
69305;SDS011;56427;51.580;4.656;2023-07-31T04:45:03;19.15;;;6.25;;
69305;SDS011;56427;51.580;4.656;2023-07-31T04:47:30;19.60;;;6.03;;
69305;SDS011;56427;51.580;4.656;2023-07-31T04:49:56;13.88;;;5.50;;
69305;SDS011;56427;51.580;4.656;2023-07-31T04:52:21;20.93;;;6.10;;
69305;SDS011;56427;51.580;4.656;2023-07-31T04:54:46;19.13;;;6.37;;
69305;SDS011;56427;51.580;4.656;2023-07-31T04:57:14;17.00;;;5.93;;
69305;SDS011;56427;51.580;4.656;2023-07-31T04:59:39;22.70;;;6.35;;
69305;SDS011;56427;51.580;4.656;2023-07-31T05:02:04;26.40;;;6.80;;
69305;SDS011;56427;51.580;4.656;2023-07-31T05:04:30;17.88;;;6.28;;
69305;SDS011;56427;51.580;4.656;2023-07-31T05:06:57;23.05;;;7.07;;
69305;SDS011;56427;51.580;4.656;2023-07-31T05:09:22;22.00;;;6.90;;
69305;SDS011;56427;51.580;4.656;2023-07-31T05:11:48;19.07;;;6.80;;
69305;SDS011;56427;51.580;4.656;2023-07-31T05:14:13;21.67;;;7.67;;
69305;SDS011;56427;51.580;4.656;2023-07-31T05:16:39;19.83;;;7.88;;
69305;SDS011;56427;51.580;4.656;2023-07-31T05:19:05;18.10;;;7.30;;
69305;SDS011;56427;51.580;4.656;2023-07-31T05:21:31;18.42;;;7.50;;
69305;SDS011;56427;51.580;4.656;2023-07-31T05:23:56;21.47;;;8.30;;
69305;SDS011;56427;51.580;4.656;2023-07-31T05:26:22;25.42;;;8.70;;
69305;SDS011;56427;51.580;4.656;2023-07-31T05:28:49;16.53;;;7.23;;
69305;SDS011;56427;51.580;4.656;2023-07-31T05:31:14;18.27;;;8.05;;
69305;SDS011;56427;51.580;4.656;2023-07-31T05:33:40;20.07;;;8.83;;
69305;SDS011;56427;51.580;4.656;2023-07-31T05:36:05;15.23;;;7.27;;
69305;SDS011;56427;51.580;4.656;2023-07-31T05:38:31;17.92;;;8.55;;
69305;SDS011;56427;51.580;4.656;2023-07-31T05:40:57;20.03;;;8.60;;
69305;SDS011;56427;51.580;4.656;2023-07-31T05:43:22;20.33;;;8.43;;
69305;SDS011;56427;51.580;4.656;2023-07-31T05:45:47;17.40;;;7.70;;
69305;SDS011;56427;51.580;4.656;2023-07-31T05:48:13;16.47;;;7.60;;
69305;SDS011;56427;51.580;4.656;2023-07-31T05:50:39;14.80;;;7.07;;
69305;SDS011;56427;51.580;4.656;2023-07-31T05:53:05;20.50;;;7.07;;
69305;SDS011;56427;51.580;4.656;2023-07-31T05:55:31;16.83;;;6.88;;
69305;SDS011;56427;51.580;4.656;2023-07-31T05:57:57;13.55;;;6.85;;
69305;SDS011;56427;51.580;4.656;2023-07-31T06:00:23;15.53;;;6.73;;
69305;SDS011;56427;51.580;4.656;2023-07-31T06:02:48;13.60;;;7.07;;
69305;SDS011;56427;51.580;4.656;2023-07-31T06:05:14;14.93;;;7.68;;
69305;SDS011;56427;51.580;4.656;2023-07-31T06:07:39;18.30;;;8.77;;
69305;SDS011;56427;51.580;4.656;2023-07-31T06:10:05;15.20;;;8.53;;
69305;SDS011;56427;51.580;4.656;2023-07-31T06:12:31;14.82;;;8.60;;
69305;SDS011;56427;51.580;4.656;2023-07-31T06:14:57;17.90;;;8.63;;
69305;SDS011;56427;51.580;4.656;2023-07-31T06:17:22;17.73;;;9.20;;
69305;SDS011;56427;51.580;4.656;2023-07-31T06:19:49;18.80;;;10.80;;
69305;SDS011;56427;51.580;4.656;2023-07-31T06:22:15;14.20;;;8.07;;
69305;SDS011;56427;51.580;4.656;2023-07-31T06:24:40;16.17;;;8.93;;
69305;SDS011;56427;51.580;4.656;2023-07-31T06:27:06;18.55;;;9.10;;
69305;SDS011;56427;51.580;4.656;2023-07-31T06:29:31;15.27;;;8.87;;
69305;SDS011;56427;51.580;4.656;2023-07-31T06:31:59;19.80;;;9.68;;
69305;SDS011;56427;51.580;4.656;2023-07-31T06:34:24;16.87;;;8.50;;
69305;SDS011;56427;51.580;4.656;2023-07-31T06:36:50;18.02;;;8.45;;
69305;SDS011;56427;51.580;4.656;2023-07-31T06:39:15;12.70;;;7.97;;
69305;SDS011;56427;51.580;4.656;2023-07-31T06:41:41;12.40;;;7.93;;
69305;SDS011;56427;51.580;4.656;2023-07-31T06:44:08;12.43;;;7.63;;
69305;SDS011;56427;51.580;4.656;2023-07-31T06:46:33;15.20;;;7.15;;
69305;SDS011;56427;51.580;4.656;2023-07-31T06:48:59;11.07;;;6.57;;
69305;SDS011;56427;51.580;4.656;2023-07-31T06:51:24;9.90;;;6.10;;
69305;SDS011;56427;51.580;4.656;2023-07-31T06:53:50;14.15;;;7.15;;
69305;SDS011;56427;51.580;4.656;2023-07-31T06:56:15;14.63;;;7.30;;
69305;SDS011;56427;51.580;4.656;2023-07-31T06:58:40;11.27;;;7.40;;
69305;SDS011;56427;51.580;4.656;2023-07-31T07:01:06;13.53;;;7.77;;
69305;SDS011;56427;51.580;4.656;2023-07-31T07:03:32;12.98;;;7.57;;
69305;SDS011;56427;51.580;4.656;2023-07-31T07:05:59;10.67;;;7.47;;
69305;SDS011;56427;51.580;4.656;2023-07-31T07:08:24;11.55;;;7.47;;
69305;SDS011;56427;51.580;4.656;2023-07-31T07:10:50;12.20;;;7.57;;
69305;SDS011;56427;51.580;4.656;2023-07-31T07:13:15;10.47;;;6.37;;
69305;SDS011;56427;51.580;4.656;2023-07-31T07:15:41;9.33;;;6.83;;
69305;SDS011;56427;51.580;4.656;2023-07-31T07:18:07;9.85;;;6.35;;
69305;SDS011;56427;51.580;4.656;2023-07-31T07:20:32;9.83;;;6.70;;
69305;SDS011;56427;51.580;4.656;2023-07-31T07:22:58;8.17;;;5.57;;
69305;SDS011;56427;51.580;4.656;2023-07-31T07:25:25;9.05;;;6.35;;
69305;SDS011;56427;51.580;4.656;2023-07-31T07:27:50;10.97;;;7.57;;
69305;SDS011;56427;51.580;4.656;2023-07-31T07:30:16;12.48;;;7.38;;
69305;SDS011;56427;51.580;4.656;2023-07-31T07:32:42;12.88;;;8.18;;
69305;SDS011;56427;51.580;4.656;2023-07-31T07:35:08;13.43;;;7.37;;
69305;SDS011;56427;51.580;4.656;2023-07-31T07:37:33;15.03;;;9.23;;
69305;SDS011;56427;51.580;4.656;2023-07-31T07:40:00;14.30;;;9.30;;
69305;SDS011;56427;51.580;4.656;2023-07-31T07:42:25;13.27;;;9.70;;
69305;SDS011;56427;51.580;4.656;2023-07-31T07:44:51;15.90;;;10.50;;
69305;SDS011;56427;51.580;4.656;2023-07-31T07:47:16;17.57;;;10.90;;
69305;SDS011;56427;51.580;4.656;2023-07-31T07:49:42;18.93;;;10.07;;
69305;SDS011;56427;51.580;4.656;2023-07-31T07:52:07;14.27;;;11.10;;
69305;SDS011;56427;51.580;4.656;2023-07-31T07:54:33;15.00;;;11.00;;
69305;SDS011;56427;51.580;4.656;2023-07-31T07:56:59;18.87;;;11.40;;
69305;SDS011;56427;51.580;4.656;2023-07-31T07:59:24;19.00;;;11.90;;
69305;SDS011;56427;51.580;4.656;2023-07-31T08:01:50;19.40;;;12.40;;
69305;SDS011;56427;51.580;4.656;2023-07-31T08:04:15;17.58;;;12.57;;
69305;SDS011;56427;51.580;4.656;2023-07-31T08:06:41;17.73;;;13.03;;
69305;SDS011;56427;51.580;4.656;2023-07-31T08:09:06;19.73;;;13.37;;
69305;SDS011;56427;51.580;4.656;2023-07-31T08:11:33;19.73;;;12.73;;
69305;SDS011;56427;51.580;4.656;2023-07-31T08:13:58;18.00;;;13.80;;
69305;SDS011;56427;51.580;4.656;2023-07-31T08:16:24;17.47;;;11.87;;
69305;SDS011;56427;51.580;4.656;2023-07-31T08:18:49;16.42;;;11.50;;
69305;SDS011;56427;51.580;4.656;2023-07-31T08:21:15;18.10;;;11.57;;
69305;SDS011;56427;51.580;4.656;2023-07-31T08:23:42;16.40;;;11.25;;
69305;SDS011;56427;51.580;4.656;2023-07-31T08:26:08;18.53;;;10.37;;
69305;SDS011;56427;51.580;4.656;2023-07-31T08:28:39;16.88;;;10.25;;
69305;SDS011;56427;51.580;4.656;2023-07-31T08:31:05;16.65;;;9.48;;
69305;SDS011;56427;51.580;4.656;2023-07-31T08:33:31;11.85;;;9.05;;
69305;SDS011;56427;51.580;4.656;2023-07-31T08:35:57;15.00;;;8.87;;
69305;SDS011;56427;51.580;4.656;2023-07-31T08:38:22;19.50;;;8.47;;
69305;SDS011;56427;51.580;4.656;2023-07-31T08:40:50;14.57;;;7.97;;
69305;SDS011;56427;51.580;4.656;2023-07-31T08:43:16;14.02;;;7.60;;
69305;SDS011;56427;51.580;4.656;2023-07-31T08:45:42;10.43;;;7.00;;
69305;SDS011;56427;51.580;4.656;2023-07-31T08:48:09;12.57;;;7.75;;
69305;SDS011;56427;51.580;4.656;2023-07-31T08:50:36;12.40;;;7.35;;
69305;SDS011;56427;51.580;4.656;2023-07-31T08:53:03;13.33;;;7.77;;
69305;SDS011;56427;51.580;4.656;2023-07-31T08:55:28;14.60;;;6.78;;
69305;SDS011;56427;51.580;4.656;2023-07-31T08:57:56;8.60;;;6.20;;
69305;SDS011;56427;51.580;4.656;2023-07-31T09:00:22;11.00;;;5.60;;
69305;SDS011;56427;51.580;4.656;2023-07-31T09:03:00;11.98;;;5.95;;
69305;SDS011;56427;51.580;4.656;2023-07-31T09:05:29;9.07;;;5.97;;
69305;SDS011;56427;51.580;4.656;2023-07-31T09:07:56;9.02;;;5.35;;
69305;SDS011;56427;51.580;4.656;2023-07-31T09:10:22;11.20;;;5.93;;
69305;SDS011;56427;51.580;4.656;2023-07-31T09:12:48;10.32;;;6.10;;
69305;SDS011;56427;51.580;4.656;2023-07-31T09:15:16;10.10;;;6.65;;
69305;SDS011;56427;51.580;4.656;2023-07-31T09:17:42;7.50;;;5.47;;
69305;SDS011;56427;51.580;4.656;2023-07-31T09:22:46;9.90;;;5.07;;
69305;SDS011;56427;51.580;4.656;2023-07-31T09:25:22;8.93;;;4.90;;
69305;SDS011;56427;51.580;4.656;2023-07-31T09:27:57;9.63;;;4.23;;
69305;SDS011;56427;51.580;4.656;2023-07-31T09:30:27;7.72;;;4.30;;
69305;SDS011;56427;51.580;4.656;2023-07-31T09:33:05;6.40;;;4.60;;
69305;SDS011;56427;51.580;4.656;2023-07-31T09:35:33;10.10;;;4.20;;
69305;SDS011;56427;51.580;4.656;2023-07-31T09:38:00;6.70;;;4.25;;
69305;SDS011;56427;51.580;4.656;2023-07-31T09:43:08;5.03;;;4.20;;
69305;SDS011;56427;51.580;4.656;2023-07-31T09:45:36;7.10;;;4.80;;
69305;SDS011;56427;51.580;4.656;2023-07-31T09:48:06;6.37;;;4.63;;
69305;SDS011;56427;51.580;4.656;2023-07-31T09:50:34;7.30;;;4.10;;
69305;SDS011;56427;51.580;4.656;2023-07-31T09:53:07;7.30;;;4.50;;
69305;SDS011;56427;51.580;4.656;2023-07-31T09:55:34;7.35;;;4.35;;
69305;SDS011;56427;51.580;4.656;2023-07-31T09:58:07;5.78;;;4.22;;
69305;SDS011;56427;51.580;4.656;2023-07-31T10:00:34;6.03;;;4.27;;
69305;SDS011;56427;51.580;4.656;2023-07-31T10:03:01;7.70;;;4.53;;
69305;SDS011;56427;51.580;4.656;2023-07-31T10:05:31;8.00;;;4.55;;
69305;SDS011;56427;51.580;4.656;2023-07-31T10:08:03;6.80;;;4.30;;
69305;SDS011;56427;51.580;4.656;2023-07-31T10:10:30;8.15;;;4.18;;
69305;SDS011;56427;51.580;4.656;2023-07-31T10:12:56;9.10;;;4.23;;
69305;SDS011;56427;51.580;4.656;2023-07-31T10:15:23;6.85;;;4.28;;
69305;SDS011;56427;51.580;4.656;2023-07-31T10:17:50;7.00;;;4.40;;
69305;SDS011;56427;51.580;4.656;2023-07-31T10:20:16;6.60;;;4.35;;
69305;SDS011;56427;51.580;4.656;2023-07-31T10:22:43;7.60;;;4.50;;
69305;SDS011;56427;51.580;4.656;2023-07-31T10:25:11;8.35;;;4.43;;
69305;SDS011;56427;51.580;4.656;2023-07-31T10:27:40;8.95;;;4.78;;
69305;SDS011;56427;51.580;4.656;2023-07-31T10:30:13;10.43;;;5.10;;
69305;SDS011;56427;51.580;4.656;2023-07-31T10:32:42;8.55;;;5.60;;
69305;SDS011;56427;51.580;4.656;2023-07-31T10:35:10;8.37;;;5.97;;
69305;SDS011;56427;51.580;4.656;2023-07-31T10:37:40;11.13;;;6.10;;
69305;SDS011;56427;51.580;4.656;2023-07-31T10:40:11;11.57;;;6.75;;
69305;SDS011;56427;51.580;4.656;2023-07-31T10:42:54;12.68;;;7.20;;
69305;SDS011;56427;51.580;4.656;2023-07-31T10:45:24;10.13;;;7.57;;
69305;SDS011;56427;51.580;4.656;2023-07-31T10:48:20;12.30;;;8.33;;
69305;SDS011;56427;51.580;4.656;2023-07-31T10:50:54;10.10;;;7.65;;
69305;SDS011;56427;51.580;4.656;2023-07-31T10:53:30;15.38;;;8.85;;
69305;SDS011;56427;51.580;4.656;2023-07-31T10:55:57;9.65;;;7.80;;
69305;SDS011;56427;51.580;4.656;2023-07-31T10:58:24;10.60;;;7.97;;
69305;SDS011;56427;51.580;4.656;2023-07-31T11:00:51;10.47;;;7.63;;
69305;SDS011;56427;51.580;4.656;2023-07-31T11:03:24;11.82;;;7.80;;
69305;SDS011;56427;51.580;4.656;2023-07-31T11:05:52;10.30;;;8.02;;
69305;SDS011;56427;51.580;4.656;2023-07-31T11:08:25;8.30;;;7.40;;
69305;SDS011;56427;51.580;4.656;2023-07-31T11:13:26;10.65;;;7.88;;
69305;SDS011;56427;51.580;4.656;2023-07-31T11:15:52;9.27;;;7.63;;
69305;SDS011;56427;51.580;4.656;2023-07-31T11:18:17;10.83;;;7.93;;
69305;SDS011;56427;51.580;4.656;2023-07-31T11:20:43;13.43;;;7.50;;
69305;SDS011;56427;51.580;4.656;2023-07-31T11:23:09;9.63;;;6.78;;
69305;SDS011;56427;51.580;4.656;2023-07-31T11:25:36;8.07;;;7.27;;
69305;SDS011;56427;51.580;4.656;2023-07-31T11:28:06;8.05;;;6.68;;
69305;SDS011;56427;51.580;4.656;2023-07-31T11:30:36;7.88;;;7.07;;
69305;SDS011;56427;51.580;4.656;2023-07-31T11:33:02;7.60;;;6.13;;
69305;SDS011;56427;51.580;4.656;2023-07-31T11:35:33;7.55;;;6.38;;
69305;SDS011;56427;51.580;4.656;2023-07-31T11:38:00;6.70;;;5.93;;
69305;SDS011;56427;51.580;4.656;2023-07-31T11:40:27;8.20;;;6.60;;
69305;SDS011;56427;51.580;4.656;2023-07-31T11:43:04;9.75;;;6.10;;
69305;SDS011;56427;51.580;4.656;2023-07-31T11:45:30;7.30;;;5.70;;
69305;SDS011;56427;51.580;4.656;2023-07-31T11:47:56;9.87;;;5.93;;
69305;SDS011;56427;51.580;4.656;2023-07-31T11:50:22;8.48;;;6.38;;
69305;SDS011;56427;51.580;4.656;2023-07-31T11:52:53;8.73;;;6.32;;
69305;SDS011;56427;51.580;4.656;2023-07-31T11:55:22;11.10;;;7.67;;
69305;SDS011;56427;51.580;4.656;2023-07-31T11:57:48;9.75;;;7.13;;
69305;SDS011;56427;51.580;4.656;2023-07-31T12:00:15;9.40;;;7.20;;
69305;SDS011;56427;51.580;4.656;2023-07-31T12:02:41;10.75;;;7.65;;
69305;SDS011;56427;51.580;4.656;2023-07-31T12:05:12;10.00;;;7.20;;
69305;SDS011;56427;51.580;4.656;2023-07-31T12:07:44;11.53;;;7.67;;
69305;SDS011;56427;51.580;4.656;2023-07-31T12:10:27;11.50;;;7.85;;
69305;SDS011;56427;51.580;4.656;2023-07-31T12:13:04;13.55;;;7.32;;
69305;SDS011;56427;51.580;4.656;2023-07-31T12:15:44;10.23;;;7.53;;
69305;SDS011;56427;51.580;4.656;2023-07-31T12:18:12;12.50;;;8.73;;
69305;SDS011;56427;51.580;4.656;2023-07-31T12:23:15;14.88;;;9.68;;
69305;SDS011;56427;51.580;4.656;2023-07-31T12:31:09;13.20;;;9.00;;
69305;SDS011;56427;51.580;4.656;2023-07-31T12:33:37;11.20;;;8.55;;
69305;SDS011;56427;51.580;4.656;2023-07-31T12:36:05;11.88;;;7.53;;
69305;SDS011;56427;51.580;4.656;2023-07-31T12:38:33;10.87;;;7.53;;
69305;SDS011;56427;51.580;4.656;2023-07-31T12:40:59;11.43;;;7.15;;
69305;SDS011;56427;51.580;4.656;2023-07-31T12:43:25;10.13;;;6.77;;
69305;SDS011;56427;51.580;4.656;2023-07-31T12:45:50;8.90;;;6.72;;
69305;SDS011;56427;51.580;4.656;2023-07-31T12:48:16;10.03;;;6.60;;
69305;SDS011;56427;51.580;4.656;2023-07-31T12:50:43;10.55;;;6.50;;
69305;SDS011;56427;51.580;4.656;2023-07-31T12:53:08;12.37;;;6.73;;
69305;SDS011;56427;51.580;4.656;2023-07-31T12:55:34;11.73;;;7.65;;
69305;SDS011;56427;51.580;4.656;2023-07-31T12:58:01;12.15;;;8.23;;
69305;SDS011;56427;51.580;4.656;2023-07-31T13:00:27;14.10;;;9.17;;
69305;SDS011;56427;51.580;4.656;2023-07-31T13:02:52;13.38;;;9.45;;
69305;SDS011;56427;51.580;4.656;2023-07-31T13:05:18;19.97;;;9.87;;
69305;SDS011;56427;51.580;4.656;2023-07-31T13:07:45;17.90;;;10.63;;
69305;SDS011;56427;51.580;4.656;2023-07-31T13:10:11;18.17;;;12.33;;
69305;SDS011;56427;51.580;4.656;2023-07-31T13:12:37;18.25;;;11.02;;
69305;SDS011;56427;51.580;4.656;2023-07-31T13:15:03;27.10;;;10.90;;
69305;SDS011;56427;51.580;4.656;2023-07-31T13:17:32;18.23;;;11.50;;
69305;SDS011;56427;51.580;4.656;2023-07-31T13:19:58;18.83;;;11.48;;
69305;SDS011;56427;51.580;4.656;2023-07-31T13:22:24;23.13;;;12.30;;
69305;SDS011;56427;51.580;4.656;2023-07-31T13:24:49;20.03;;;12.90;;
69305;SDS011;56427;51.580;4.656;2023-07-31T13:27:15;16.50;;;11.37;;
69305;SDS011;56427;51.580;4.656;2023-07-31T13:29:46;18.80;;;12.68;;
69305;SDS011;56427;51.580;4.656;2023-07-31T13:32:11;20.43;;;12.50;;
69305;SDS011;56427;51.580;4.656;2023-07-31T13:34:37;17.25;;;11.75;;
69305;SDS011;56427;51.580;4.656;2023-07-31T13:37:02;15.97;;;10.73;;
69305;SDS011;56427;51.580;4.656;2023-07-31T13:39:28;18.90;;;10.82;;
69305;SDS011;56427;51.580;4.656;2023-07-31T13:41:53;16.73;;;8.93;;
69305;SDS011;56427;51.580;4.656;2023-07-31T13:44:20;12.60;;;8.00;;
69305;SDS011;56427;51.580;4.656;2023-07-31T13:46:45;16.10;;;8.63;;
69305;SDS011;56427;51.580;4.656;2023-07-31T13:49:10;16.47;;;9.53;;
69305;SDS011;56427;51.580;4.656;2023-07-31T13:51:36;14.17;;;9.80;;
69305;SDS011;56427;51.580;4.656;2023-07-31T13:54:02;15.90;;;10.00;;
69305;SDS011;56427;51.580;4.656;2023-07-31T13:56:28;13.90;;;9.37;;
69305;SDS011;56427;51.580;4.656;2023-07-31T13:58:53;13.33;;;9.80;;
69305;SDS011;56427;51.580;4.656;2023-07-31T14:01:19;10.67;;;7.20;;
69305;SDS011;56427;51.580;4.656;2023-07-31T14:03:44;10.93;;;7.77;;
69305;SDS011;56427;51.580;4.656;2023-07-31T14:06:10;10.20;;;6.37;;
69305;SDS011;56427;51.580;4.656;2023-07-31T14:08:35;10.07;;;6.38;;
69305;SDS011;56427;51.580;4.656;2023-07-31T14:11:01;10.63;;;7.00;;
69305;SDS011;56427;51.580;4.656;2023-07-31T14:13:26;10.20;;;7.15;;
69305;SDS011;56427;51.580;4.656;2023-07-31T14:15:52;13.70;;;8.27;;
69305;SDS011;56427;51.580;4.656;2023-07-31T14:18:18;14.03;;;9.27;;
69305;SDS011;56427;51.580;4.656;2023-07-31T14:20:44;14.30;;;10.45;;
69305;SDS011;56427;51.580;4.656;2023-07-31T14:23:09;12.40;;;9.60;;
69305;SDS011;56427;51.580;4.656;2023-07-31T14:25:35;15.80;;;10.43;;
69305;SDS011;56427;51.580;4.656;2023-07-31T14:28:00;13.03;;;8.30;;
69305;SDS011;56427;51.580;4.656;2023-07-31T14:30:26;12.67;;;9.07;;
69305;SDS011;56427;51.580;4.656;2023-07-31T14:32:51;9.73;;;6.07;;
69305;SDS011;56427;51.580;4.656;2023-07-31T14:35:17;7.33;;;4.20;;
69305;SDS011;56427;51.580;4.656;2023-07-31T14:37:43;7.43;;;4.67;;
69305;SDS011;56427;51.580;4.656;2023-07-31T14:40:10;10.05;;;5.15;;
69305;SDS011;56427;51.580;4.656;2023-07-31T14:42:37;7.75;;;5.38;;
69305;SDS011;56427;51.580;4.656;2023-07-31T14:45:04;8.73;;;5.20;;
69305;SDS011;56427;51.580;4.656;2023-07-31T14:47:30;11.40;;;5.53;;
69305;SDS011;56427;51.580;4.656;2023-07-31T14:49:57;7.78;;;5.00;;
69305;SDS011;56427;51.580;4.656;2023-07-31T14:52:22;8.35;;;5.72;;